sensor_id;sensor_type;location;lat;lon;timestamp;pressure;altitude;pressure_sealevel;temperature;humidity
74327;BME280;62745;51.060;13.786;2023-06-24T00:00:43;100901.75;;;15.68;100.00
74327;BME280;62745;51.060;13.786;2023-06-24T00:03:08;100903.78;;;15.73;100.00
74327;BME280;62745;51.060;13.786;2023-06-24T00:05:33;100912.09;;;15.71;100.00
74327;BME280;62745;51.060;13.786;2023-06-24T00:07:59;100900.91;;;15.81;100.00
74327;BME280;62745;51.060;13.786;2023-06-24T00:10:27;100895.28;;;15.82;100.00
74327;BME280;62745;51.060;13.786;2023-06-24T00:12:52;100896.91;;;15.97;100.00
74327;BME280;62745;51.060;13.786;2023-06-24T00:15:18;100896.06;;;16.03;100.00
74327;BME280;62745;51.060;13.786;2023-06-24T00:17:43;100896.06;;;16.03;100.00
74327;BME280;62745;51.060;13.786;2023-06-24T00:20:09;100897.06;;;16.08;100.00
74327;BME280;62745;51.060;13.786;2023-06-24T00:22:37;100895.06;;;15.97;100.00
74327;BME280;62745;51.060;13.786;2023-06-24T00:25:08;100894.22;;;15.90;100.00
74327;BME280;62745;51.060;13.786;2023-06-24T00:27:34;100888.44;;;15.86;100.00
74327;BME280;62745;51.060;13.786;2023-06-24T00:29:59;100880.34;;;15.86;100.00
74327;BME280;62745;51.060;13.786;2023-06-24T00:32:24;100878.50;;;15.87;100.00
74327;BME280;62745;51.060;13.786;2023-06-24T00:34:49;100873.94;;;15.87;100.00
74327;BME280;62745;51.060;13.786;2023-06-24T00:37:15;100870.19;;;15.88;100.00
74327;BME280;62745;51.060;13.786;2023-06-24T00:39:40;100867.53;;;15.75;100.00
74327;BME280;62745;51.060;13.786;2023-06-24T00:42:06;100868.78;;;15.79;100.00
74327;BME280;62745;51.060;13.786;2023-06-24T00:44:31;100864.63;;;15.83;100.00
74327;BME280;62745;51.060;13.786;2023-06-24T00:46:56;100875.78;;;15.87;100.00
74327;BME280;62745;51.060;13.786;2023-06-24T00:49:22;100871.00;;;15.89;100.00
74327;BME280;62745;51.060;13.786;2023-06-24T00:51:47;100869.75;;;15.98;100.00
74327;BME280;62745;51.060;13.786;2023-06-24T00:54:16;100864.97;;;15.93;100.00
74327;BME280;62745;51.060;13.786;2023-06-24T00:56:42;100869.78;;;15.85;100.00
74327;BME280;62745;51.060;13.786;2023-06-24T00:59:10;100871.47;;;15.79;100.00
74327;BME280;62745;51.060;13.786;2023-06-24T01:01:37;100872.47;;;15.91;100.00
74327;BME280;62745;51.060;13.786;2023-06-24T01:04:03;100863.78;;;15.83;100.00
74327;BME280;62745;51.060;13.786;2023-06-24T01:06:30;100861.28;;;15.88;100.00
74327;BME280;62745;51.060;13.786;2023-06-24T01:08:59;100865.59;;;15.95;100.00
74327;BME280;62745;51.060;13.786;2023-06-24T01:11:26;100869.75;;;15.98;100.00
74327;BME280;62745;51.060;13.786;2023-06-24T01:13:51;100866.19;;;16.04;100.00
74327;BME280;62745;51.060;13.786;2023-06-24T01:16:26;100865.59;;;15.95;100.00
74327;BME280;62745;51.060;13.786;2023-06-24T01:18:57;100866.81;;;16.06;100.00
74327;BME280;62745;51.060;13.786;2023-06-24T01:24:29;100868.28;;;16.02;100.00
74327;BME280;62745;51.060;13.786;2023-06-24T01:27:19;100863.94;;;16.01;100.00
74327;BME280;62745;51.060;13.786;2023-06-24T01:30:15;100868.72;;;15.99;100.00
74327;BME280;62745;51.060;13.786;2023-06-24T01:32:50;100874.72;;;16.01;100.00
74327;BME280;62745;51.060;13.786;2023-06-24T01:35:25;100878.25;;;15.95;100.00
74327;BME280;62745;51.060;13.786;2023-06-24T01:37:55;100877.16;;;16.09;100.00
74327;BME280;62745;51.060;13.786;2023-06-24T01:40:30;100875.91;;;16.12;100.00
74327;BME280;62745;51.060;13.786;2023-06-24T01:42:58;100873.63;;;16.09;100.00
74327;BME280;62745;51.060;13.786;2023-06-24T01:45:32;100872.81;;;16.08;100.00
74327;BME280;62745;51.060;13.786;2023-06-24T01:48:05;100873.03;;;16.07;100.00
74327;BME280;62745;51.060;13.786;2023-06-24T01:50:33;100872.41;;;16.05;100.00
74327;BME280;62745;51.060;13.786;2023-06-24T01:53:02;100876.97;;;16.04;100.00
74327;BME280;62745;51.060;13.786;2023-06-24T01:55:29;100882.97;;;16.13;100.00
74327;BME280;62745;51.060;13.786;2023-06-24T01:57:57;100880.06;;;16.14;100.00
74327;BME280;62745;51.060;13.786;2023-06-24T02:00:23;100878.59;;;16.18;100.00
74327;BME280;62745;51.060;13.786;2023-06-24T02:02:50;100872.38;;;16.18;100.00
74327;BME280;62745;51.060;13.786;2023-06-24T02:05:17;100879.84;;;16.16;100.00
74327;BME280;62745;51.060;13.786;2023-06-24T02:07:47;100878.16;;;16.21;100.00
74327;BME280;62745;51.060;13.786;2023-06-24T02:10:15;100881.91;;;16.20;100.00
74327;BME280;62745;51.060;13.786;2023-06-24T02:12:41;100881.28;;;16.18;100.00
74327;BME280;62745;51.060;13.786;2023-06-24T02:15:07;100875.44;;;16.28;100.00
74327;BME280;62745;51.060;13.786;2023-06-24T02:17:34;100882.06;;;16.32;100.00
74327;BME280;62745;51.060;13.786;2023-06-24T02:20:01;100872.31;;;16.31;100.00
74327;BME280;62745;51.060;13.786;2023-06-24T02:22:27;100869.19;;;16.34;100.00
74327;BME280;62745;51.060;13.786;2023-06-24T02:24:53;100870.03;;;16.35;100.00
74327;BME280;62745;51.060;13.786;2023-06-24T02:27:19;100869.81;;;16.36;100.00
74327;BME280;62745;51.060;13.786;2023-06-24T02:29:45;100869.38;;;16.39;100.00
74327;BME280;62745;51.060;13.786;2023-06-24T02:32:11;100877.69;;;16.38;100.00
74327;BME280;62745;51.060;13.786;2023-06-24T02:34:37;100881.81;;;16.40;100.00
74327;BME280;62745;51.060;13.786;2023-06-24T02:37:02;100876.41;;;16.40;100.00
74327;BME280;62745;51.060;13.786;2023-06-24T02:39:27;100874.31;;;16.42;100.00
74327;BME280;62745;51.060;13.786;2023-06-24T02:41:53;100871.47;;;16.37;100.00
74327;BME280;62745;51.060;13.786;2023-06-24T02:44:18;100870.78;;;16.48;100.00
74327;BME280;62745;51.060;13.786;2023-06-24T02:46:45;100874.75;;;16.39;100.00
74327;BME280;62745;51.060;13.786;2023-06-24T02:49:13;100870.63;;;16.37;100.00
74327;BME280;62745;51.060;13.786;2023-06-24T02:51:40;100874.16;;;16.37;100.00
74327;BME280;62745;51.060;13.786;2023-06-24T02:54:06;100883.94;;;16.32;100.00
74327;BME280;62745;51.060;13.786;2023-06-24T02:56:32;100874.97;;;16.38;100.00
74327;BME280;62745;51.060;13.786;2023-06-24T02:58:57;100878.94;;;16.35;100.00
74327;BME280;62745;51.060;13.786;2023-06-24T03:01:23;100876.91;;;16.24;100.00
74327;BME280;62745;51.060;13.786;2023-06-24T03:03:53;100889.91;;;16.40;100.00
74327;BME280;62745;51.060;13.786;2023-06-24T03:06:19;100883.13;;;16.31;100.00
74327;BME280;62745;51.060;13.786;2023-06-24T03:08:45;100888.28;;;16.33;100.00
74327;BME280;62745;51.060;13.786;2023-06-24T03:11:14;100880.59;;;16.36;100.00
74327;BME280;62745;51.060;13.786;2023-06-24T03:13:40;100884.72;;;16.39;100.00
74327;BME280;62745;51.060;13.786;2023-06-24T03:16:06;100883.69;;;16.40;100.00
74327;BME280;62745;51.060;13.786;2023-06-24T03:18:39;100878.47;;;16.45;100.00
74327;BME280;62745;51.060;13.786;2023-06-24T03:21:04;100880.75;;;16.41;100.00
74327;BME280;62745;51.060;13.786;2023-06-24T03:23:30;100882.63;;;16.41;100.00
74327;BME280;62745;51.060;13.786;2023-06-24T03:25:55;100882.19;;;16.50;100.00
74327;BME280;62745;51.060;13.786;2023-06-24T03:28:21;100881.53;;;16.55;100.00
74327;BME280;62745;51.060;13.786;2023-06-24T03:30:46;100892.59;;;16.47;100.00
74327;BME280;62745;51.060;13.786;2023-06-24T03:33:11;100889.53;;;16.30;100.00
74327;BME280;62745;51.060;13.786;2023-06-24T03:35:42;100883.50;;;16.35;100.00
74327;BME280;62745;51.060;13.786;2023-06-24T03:38:08;100879.78;;;16.29;100.00
74327;BME280;62745;51.060;13.786;2023-06-24T03:40:33;100887.25;;;16.27;100.00
74327;BME280;62745;51.060;13.786;2023-06-24T03:42:58;100877.34;;;16.21;100.00
74327;BME280;62745;51.060;13.786;2023-06-24T03:45:23;100891.84;;;16.20;100.00
74327;BME280;62745;51.060;13.786;2023-06-24T03:47:49;100896.03;;;16.16;100.00
74327;BME280;62745;51.060;13.786;2023-06-24T03:50:14;100902.84;;;16.12;100.00
74327;BME280;62745;51.060;13.786;2023-06-24T03:52:39;100902.69;;;16.07;100.00
74327;BME280;62745;51.060;13.786;2023-06-24T03:55:05;100902.88;;;16.05;100.00
74327;BME280;62745;51.060;13.786;2023-06-24T03:57:30;100914.91;;;16.09;100.00
74327;BME280;62745;51.060;13.786;2023-06-24T03:59:56;100914.09;;;16.02;100.00
74327;BME280;62745;51.060;13.786;2023-06-24T04:02:21;100918.66;;;15.95;100.00
74327;BME280;62745;51.060;13.786;2023-06-24T04:04:47;100929.25;;;15.97;100.00
74327;BME280;62745;51.060;13.786;2023-06-24T04:07:16;100934.19;;;16.06;100.00
74327;BME280;62745;51.060;13.786;2023-06-24T04:09:54;100928.19;;;16.04;100.00
74327;BME280;62745;51.060;13.786;2023-06-24T04:12:19;100931.69;;;16.11;100.00
74327;BME280;62745;51.060;13.786;2023-06-24T04:14:45;100938.91;;;16.24;100.00
74327;BME280;62745;51.060;13.786;2023-06-24T04:17:10;100932.03;;;16.28;100.00
74327;BME280;62745;51.060;13.786;2023-06-24T04:19:35;100944.47;;;16.36;100.00
74327;BME280;62745;51.060;13.786;2023-06-24T04:22:00;100942.81;;;16.28;100.00
74327;BME280;62745;51.060;13.786;2023-06-24T04:24:26;100954.25;;;16.23;100.00
74327;BME280;62745;51.060;13.786;2023-06-24T04:26:51;100955.94;;;16.18;100.00
74327;BME280;62745;51.060;13.786;2023-06-24T04:29:16;100953.00;;;16.26;100.00
74327;BME280;62745;51.060;13.786;2023-06-24T04:31:41;100953.19;;;16.38;100.00
74327;BME280;62745;51.060;13.786;2023-06-24T04:34:07;100956.47;;;16.40;100.00
74327;BME280;62745;51.060;13.786;2023-06-24T04:36:32;100957.09;;;16.42;100.00
74327;BME280;62745;51.060;13.786;2023-06-24T04:38:57;100962.88;;;16.45;100.00
74327;BME280;62745;51.060;13.786;2023-06-24T04:41:22;100964.97;;;16.50;100.00
74327;BME280;62745;51.060;13.786;2023-06-24T04:43:48;100969.53;;;16.49;100.00
74327;BME280;62745;51.060;13.786;2023-06-24T04:46:13;100970.75;;;16.53;100.00
74327;BME280;62745;51.060;13.786;2023-06-24T04:48:38;100982.13;;;16.62;100.00
74327;BME280;62745;51.060;13.786;2023-06-24T04:51:03;100982.34;;;16.61;100.00
74327;BME280;62745;51.060;13.786;2023-06-24T04:53:29;100977.78;;;16.68;100.00
74327;BME280;62745;51.060;13.786;2023-06-24T04:55:54;100979.78;;;16.79;100.00
74327;BME280;62745;51.060;13.786;2023-06-24T04:58:19;100975.91;;;16.68;100.00
74327;BME280;62745;51.060;13.786;2023-06-24T05:00:45;100980.81;;;16.84;100.00
74327;BME280;62745;51.060;13.786;2023-06-24T05:03:10;100976.47;;;16.77;100.00
74327;BME280;62745;51.060;13.786;2023-06-24T05:05:35;100981.66;;;16.78;100.00
74327;BME280;62745;51.060;13.786;2023-06-24T05:08:00;100983.97;;;16.81;100.00
74327;BME280;62745;51.060;13.786;2023-06-24T05:10:26;100985.34;;;16.91;100.00
74327;BME280;62745;51.060;13.786;2023-06-24T05:12:51;100988.94;;;16.78;100.00
74327;BME280;62745;51.060;13.786;2023-06-24T05:15:16;100988.09;;;16.77;100.00
74327;BME280;62745;51.060;13.786;2023-06-24T05:17:42;100991.34;;;16.93;100.00
74327;BME280;62745;51.060;13.786;2023-06-24T05:20:08;100987.75;;;17.05;100.00
74327;BME280;62745;51.060;13.786;2023-06-24T05:22:34;100987.75;;;17.05;100.00
74327;BME280;62745;51.060;13.786;2023-06-24T05:24:59;100988.38;;;17.07;100.00
74327;BME280;62745;51.060;13.786;2023-06-24T05:27:24;100977.03;;;16.92;100.00
74327;BME280;62745;51.060;13.786;2023-06-24T05:29:50;100994.38;;;16.65;100.00
74327;BME280;62745;51.060;13.786;2023-06-24T05:32:15;100995.69;;;16.42;100.00
74327;BME280;62745;51.060;13.786;2023-06-24T05:34:42;100996.75;;;16.35;100.00
74327;BME280;62745;51.060;13.786;2023-06-24T05:37:07;100995.25;;;16.45;100.00
74327;BME280;62745;51.060;13.786;2023-06-24T05:39:33;100999.84;;;16.38;100.00
74327;BME280;62745;51.060;13.786;2023-06-24T05:41:58;100988.19;;;16.44;100.00
74327;BME280;62745;51.060;13.786;2023-06-24T05:44:23;100989.63;;;16.53;100.00
74327;BME280;62745;51.060;13.786;2023-06-24T05:46:49;100984.56;;;16.83;100.00
74327;BME280;62745;51.060;13.786;2023-06-24T05:49:14;100989.25;;;16.95;100.00
74327;BME280;62745;51.060;13.786;2023-06-24T05:51:40;100991.28;;;17.06;100.00
74327;BME280;62745;51.060;13.786;2023-06-24T05:54:05;100986.16;;;16.98;100.00
74327;BME280;62745;51.060;13.786;2023-06-24T05:56:32;100990.97;;;16.89;100.00
74327;BME280;62745;51.060;13.786;2023-06-24T05:58:57;100994.59;;;16.63;100.00
74327;BME280;62745;51.060;13.786;2023-06-24T06:01:23;101003.69;;;16.62;100.00
74327;BME280;62745;51.060;13.786;2023-06-24T06:03:48;101005.03;;;16.46;100.00
74327;BME280;62745;51.060;13.786;2023-06-24T06:06:14;101008.38;;;16.35;100.00
74327;BME280;62745;51.060;13.786;2023-06-24T06:08:40;101011.25;;;16.40;100.00
74327;BME280;62745;51.060;13.786;2023-06-24T06:11:05;101027.91;;;16.17;100.00
74327;BME280;62745;51.060;13.786;2023-06-24T06:13:31;101014.00;;;16.07;100.00
74327;BME280;62745;51.060;13.786;2023-06-24T06:15:57;101022.09;;;16.14;100.00
74327;BME280;62745;51.060;13.786;2023-06-24T06:18:23;101014.22;;;16.19;100.00
74327;BME280;62745;51.060;13.786;2023-06-24T06:20:48;101021.47;;;16.12;100.00
74327;BME280;62745;51.060;13.786;2023-06-24T06:23:15;101028.75;;;16.05;100.00
74327;BME280;62745;51.060;13.786;2023-06-24T06:25:40;101031.44;;;16.05;100.00
74327;BME280;62745;51.060;13.786;2023-06-24T06:28:05;101023.53;;;16.23;100.00
74327;BME280;62745;51.060;13.786;2023-06-24T06:30:31;101032.69;;;16.15;100.00
74327;BME280;62745;51.060;13.786;2023-06-24T06:32:56;101029.78;;;16.17;100.00
74327;BME280;62745;51.060;13.786;2023-06-24T06:35:21;101021.84;;;16.29;100.00
74327;BME280;62745;51.060;13.786;2023-06-24T06:37:47;101029.53;;;16.12;100.00
74327;BME280;62745;51.060;13.786;2023-06-24T06:40:17;101018.78;;;16.05;100.00
74327;BME280;62745;51.060;13.786;2023-06-24T06:42:42;101020.88;;;16.03;100.00
74327;BME280;62745;51.060;13.786;2023-06-24T06:45:08;101027.91;;;15.91;100.00
74327;BME280;62745;51.060;13.786;2023-06-24T06:47:33;101034.56;;;15.88;100.00
74327;BME280;62745;51.060;13.786;2023-06-24T06:49:58;101028.75;;;15.78;100.00
74327;BME280;62745;51.060;13.786;2023-06-24T06:52:24;101033.72;;;15.75;100.00
74327;BME280;62745;51.060;13.786;2023-06-24T06:54:49;101032.91;;;15.81;100.00
74327;BME280;62745;51.060;13.786;2023-06-24T06:57:14;101042.84;;;15.87;100.00
74327;BME280;62745;51.060;13.786;2023-06-24T06:59:39;101037.47;;;15.80;100.00
74327;BME280;62745;51.060;13.786;2023-06-24T07:02:05;101037.25;;;15.82;100.00
74327;BME280;62745;51.060;13.786;2023-06-24T07:04:31;101043.47;;;15.69;100.00
74327;BME280;62745;51.060;13.786;2023-06-24T07:06:56;101038.28;;;15.74;100.00
74327;BME280;62745;51.060;13.786;2023-06-24T07:09:21;101036.00;;;15.84;100.00
74327;BME280;62745;51.060;13.786;2023-06-24T07:11:46;101033.09;;;15.92;100.00
74327;BME280;62745;51.060;13.786;2023-06-24T07:14:12;101040.34;;;15.79;100.00
74327;BME280;62745;51.060;13.786;2023-06-24T07:16:37;101039.09;;;15.94;100.00
74327;BME280;62745;51.060;13.786;2023-06-24T07:19:03;101045.53;;;16.07;100.00
74327;BME280;62745;51.060;13.786;2023-06-24T07:21:28;101040.53;;;16.10;100.00
74327;BME280;62745;51.060;13.786;2023-06-24T07:23:53;101048.66;;;16.04;100.00
74327;BME280;62745;51.060;13.786;2023-06-24T07:26:19;101044.72;;;16.00;100.00
74327;BME280;62745;51.060;13.786;2023-06-24T07:28:44;101046.56;;;15.92;100.00
74327;BME280;62745;51.060;13.786;2023-06-24T07:31:09;101050.50;;;16.10;100.00
74327;BME280;62745;51.060;13.786;2023-06-24T07:33:35;101043.44;;;16.09;100.00
74327;BME280;62745;51.060;13.786;2023-06-24T07:36:01;101039.69;;;16.36;100.00
74327;BME280;62745;51.060;13.786;2023-06-24T07:38:28;101044.88;;;16.24;100.00
74327;BME280;62745;51.060;13.786;2023-06-24T07:40:53;101053.38;;;16.35;100.00
74327;BME280;62745;51.060;13.786;2023-06-24T07:43:18;101045.22;;;16.68;100.00
74327;BME280;62745;51.060;13.786;2023-06-24T07:45:44;101040.91;;;16.47;100.00
74327;BME280;62745;51.060;13.786;2023-06-24T07:48:09;101043.94;;;16.83;100.00
74327;BME280;62745;51.060;13.786;2023-06-24T07:50:34;101039.81;;;17.19;100.00
74327;BME280;62745;51.060;13.786;2023-06-24T07:53:01;101050.44;;;17.14;100.00
74327;BME280;62745;51.060;13.786;2023-06-24T07:55:27;101046.69;;;17.47;100.00
74327;BME280;62745;51.060;13.786;2023-06-24T07:57:52;101039.44;;;17.79;100.00
74327;BME280;62745;51.060;13.786;2023-06-24T08:00:17;101031.72;;;18.25;100.00
74327;BME280;62745;51.060;13.786;2023-06-24T08:02:43;101035.69;;;18.84;100.00
74327;BME280;62745;51.060;13.786;2023-06-24T08:05:09;101024.69;;;18.79;100.00
74327;BME280;62745;51.060;13.786;2023-06-24T08:07:34;101035.06;;;19.01;98.68
74327;BME280;62745;51.060;13.786;2023-06-24T08:10:00;101032.47;;;18.76;98.32
74327;BME280;62745;51.060;13.786;2023-06-24T08:12:25;101029.97;;;18.56;100.00
74327;BME280;62745;51.060;13.786;2023-06-24T08:14:50;101033.03;;;18.59;96.67
74327;BME280;62745;51.060;13.786;2023-06-24T08:17:15;101041.50;;;18.26;96.65
74327;BME280;62745;51.060;13.786;2023-06-24T08:19:41;101041.25;;;18.10;96.56
74327;BME280;62745;51.060;13.786;2023-06-24T08:22:06;101037.91;;;17.89;97.06
74327;BME280;62745;51.060;13.786;2023-06-24T08:24:31;101040.75;;;17.94;97.50
74327;BME280;62745;51.060;13.786;2023-06-24T08:26:57;101038.59;;;17.78;96.19
74327;BME280;62745;51.060;13.786;2023-06-24T08:29:22;101042.78;;;17.81;96.31
74327;BME280;62745;51.060;13.786;2023-06-24T08:31:47;101040.91;;;18.24;93.78
74327;BME280;62745;51.060;13.786;2023-06-24T08:34:13;101041.13;;;18.66;91.20
74327;BME280;62745;51.060;13.786;2023-06-24T08:36:38;101048.09;;;18.92;89.91
74327;BME280;62745;51.060;13.786;2023-06-24T08:39:03;101039.88;;;19.29;91.97
74327;BME280;62745;51.060;13.786;2023-06-24T08:41:28;101038.56;;;19.49;88.42
74327;BME280;62745;51.060;13.786;2023-06-24T08:43:54;101048.97;;;19.64;89.77
74327;BME280;62745;51.060;13.786;2023-06-24T08:46:20;101050.44;;;19.90;88.47
74327;BME280;62745;51.060;13.786;2023-06-24T08:48:48;101043.25;;;20.66;82.72
74327;BME280;62745;51.060;13.786;2023-06-24T08:51:15;101051.97;;;21.08;85.12
74327;BME280;62745;51.060;13.786;2023-06-24T08:53:43;101051.16;;;20.67;80.20
74327;BME280;62745;51.060;13.786;2023-06-24T08:56:09;101059.19;;;20.16;80.44
74327;BME280;62745;51.060;13.786;2023-06-24T08:58:35;101063.88;;;19.97;88.97
74327;BME280;62745;51.060;13.786;2023-06-24T09:01:01;101057.84;;;19.71;81.40
74327;BME280;62745;51.060;13.786;2023-06-24T09:03:26;101065.63;;;19.79;83.47
74327;BME280;62745;51.060;13.786;2023-06-24T09:05:52;101058.84;;;20.47;85.02
74327;BME280;62745;51.060;13.786;2023-06-24T09:08:17;101061.16;;;20.32;82.15
74327;BME280;62745;51.060;13.786;2023-06-24T09:10:43;101061.06;;;20.38;81.10
74327;BME280;62745;51.060;13.786;2023-06-24T09:13:08;101068.03;;;20.46;81.28
74327;BME280;62745;51.060;13.786;2023-06-24T09:15:37;101056.44;;;19.92;85.62
74327;BME280;62745;51.060;13.786;2023-06-24T09:18:04;101063.16;;;19.90;74.64
74327;BME280;62745;51.060;13.786;2023-06-24T09:20:31;101068.84;;;20.23;73.83
74327;BME280;62745;51.060;13.786;2023-06-24T09:23:03;101059.38;;;19.79;72.98
74327;BME280;62745;51.060;13.786;2023-06-24T09:25:30;101058.63;;;19.60;71.39
74327;BME280;62745;51.060;13.786;2023-06-24T09:28:02;101051.81;;;19.39;71.35
74327;BME280;62745;51.060;13.786;2023-06-24T09:30:28;101057.34;;;19.63;72.64
74327;BME280;62745;51.060;13.786;2023-06-24T09:32:54;101060.06;;;19.74;74.79
74327;BME280;62745;51.060;13.786;2023-06-24T09:35:24;101067.78;;;20.83;74.52
74327;BME280;62745;51.060;13.786;2023-06-24T09:37:51;101062.16;;;21.01;75.47
74327;BME280;62745;51.060;13.786;2023-06-24T09:40:18;101063.81;;;20.50;70.96
74327;BME280;62745;51.060;13.786;2023-06-24T09:42:53;101061.06;;;20.38;70.18
74327;BME280;62745;51.060;13.786;2023-06-24T09:45:30;101062.81;;;20.09;66.49
74327;BME280;62745;51.060;13.786;2023-06-24T09:47:56;101047.97;;;20.00;70.68
74327;BME280;62745;51.060;13.786;2023-06-24T09:50:25;101047.59;;;19.85;62.38
74327;BME280;62745;51.060;13.786;2023-06-24T09:52:52;101045.00;;;20.13;60.90
74327;BME280;62745;51.060;13.786;2023-06-24T09:55:18;101048.44;;;19.86;64.18
74327;BME280;62745;51.060;13.786;2023-06-24T09:57:45;101059.13;;;19.80;65.23
74327;BME280;62745;51.060;13.786;2023-06-24T10:00:13;101047.50;;;20.27;68.65
74327;BME280;62745;51.060;13.786;2023-06-24T10:02:40;101050.09;;;20.45;65.76
74327;BME280;62745;51.060;13.786;2023-06-24T10:05:06;101048.34;;;20.51;66.85
74327;BME280;62745;51.060;13.786;2023-06-24T10:07:31;101047.09;;;19.76;65.26
74327;BME280;62745;51.060;13.786;2023-06-24T10:09:57;101058.69;;;20.30;65.19
74327;BME280;62745;51.060;13.786;2023-06-24T10:12:23;101054.00;;;20.37;62.16
74327;BME280;62745;51.060;13.786;2023-06-24T10:14:51;101050.53;;;20.77;64.96
74327;BME280;62745;51.060;13.786;2023-06-24T10:17:17;101060.97;;;20.97;61.54
74327;BME280;62745;51.060;13.786;2023-06-24T10:19:44;101049.22;;;21.20;64.09
74327;BME280;62745;51.060;13.786;2023-06-24T10:22:10;101048.94;;;20.53;62.91
74327;BME280;62745;51.060;13.786;2023-06-24T10:24:37;101050.91;;;21.09;63.27
74327;BME280;62745;51.060;13.786;2023-06-24T10:27:09;101040.66;;;20.59;65.50
74327;BME280;62745;51.060;13.786;2023-06-24T10:29:35;101055.88;;;20.72;67.20
74327;BME280;62745;51.060;13.786;2023-06-24T10:34:43;101045.25;;;20.59;65.95
74327;BME280;62745;51.060;13.786;2023-06-24T10:37:19;101053.78;;;20.51;64.83
74327;BME280;62745;51.060;13.786;2023-06-24T10:39:45;101062.25;;;20.66;66.27
74327;BME280;62745;51.060;13.786;2023-06-24T10:42:29;101048.63;;;20.89;64.18
74327;BME280;62745;51.060;13.786;2023-06-24T10:44:56;101053.25;;;21.46;64.24
74327;BME280;62745;51.060;13.786;2023-06-24T10:47:26;101048.59;;;21.29;62.61
74327;BME280;62745;51.060;13.786;2023-06-24T10:49:52;101052.47;;;21.05;61.67
74327;BME280;62745;51.060;13.786;2023-06-24T10:52:19;101042.09;;;22.09;60.33
74327;BME280;62745;51.060;13.786;2023-06-24T10:54:46;101038.41;;;22.54;59.15
74327;BME280;62745;51.060;13.786;2023-06-24T10:57:12;101033.31;;;22.63;56.24
74327;BME280;62745;51.060;13.786;2023-06-24T10:59:41;101031.53;;;21.96;60.46
74327;BME280;62745;51.060;13.786;2023-06-24T11:02:08;101017.41;;;21.99;59.57
74327;BME280;62745;51.060;13.786;2023-06-24T11:04:42;101033.63;;;21.15;60.56
74327;BME280;62745;51.060;13.786;2023-06-24T11:07:08;101026.84;;;21.29;60.00
74327;BME280;62745;51.060;13.786;2023-06-24T11:09:33;101023.66;;;21.32;60.78
74327;BME280;62745;51.060;13.786;2023-06-24T11:11:58;101026.19;;;22.18;59.46
74327;BME280;62745;51.060;13.786;2023-06-24T11:14:23;101021.78;;;22.77;60.10
74327;BME280;62745;51.060;13.786;2023-06-24T11:16:49;101014.34;;;23.17;58.28
74327;BME280;62745;51.060;13.786;2023-06-24T11:19:14;101018.00;;;22.57;58.95
74327;BME280;62745;51.060;13.786;2023-06-24T11:21:40;101014.91;;;22.92;59.82
74327;BME280;62745;51.060;13.786;2023-06-24T11:24:05;101006.47;;;23.47;57.63
74327;BME280;62745;51.060;13.786;2023-06-24T11:26:32;101000.00;;;23.26;55.29
74327;BME280;62745;51.060;13.786;2023-06-24T11:28:57;101011.16;;;22.76;57.25
74327;BME280;62745;51.060;13.786;2023-06-24T11:31:25;101004.03;;;23.51;55.72
74327;BME280;62745;51.060;13.786;2023-06-24T11:33:51;101007.63;;;24.25;54.46
74327;BME280;62745;51.060;13.786;2023-06-24T11:36:18;100998.78;;;24.03;51.15
74327;BME280;62745;51.060;13.786;2023-06-24T11:38:45;100989.00;;;24.65;53.49
74327;BME280;62745;51.060;13.786;2023-06-24T11:41:11;100996.19;;;23.86;52.07
74327;BME280;62745;51.060;13.786;2023-06-24T11:43:36;100994.59;;;23.95;51.20
74327;BME280;62745;51.060;13.786;2023-06-24T11:46:01;100999.69;;;23.82;53.83
74327;BME280;62745;51.060;13.786;2023-06-24T11:48:29;100999.00;;;24.39;53.80
74327;BME280;62745;51.060;13.786;2023-06-24T11:50:55;100988.25;;;24.27;53.05
74327;BME280;62745;51.060;13.786;2023-06-24T11:53:30;100987.47;;;23.89;53.92
74327;BME280;62745;51.060;13.786;2023-06-24T11:55:56;100988.34;;;24.00;53.51
74327;BME280;62745;51.060;13.786;2023-06-24T11:58:21;100991.59;;;23.97;51.30
74327;BME280;62745;51.060;13.786;2023-06-24T12:00:48;100981.88;;;23.69;52.08
74327;BME280;62745;51.060;13.786;2023-06-24T12:03:15;100982.41;;;24.08;53.61
74327;BME280;62745;51.060;13.786;2023-06-24T12:05:40;100974.88;;;24.25;52.77
74327;BME280;62745;51.060;13.786;2023-06-24T12:08:10;100977.53;;;23.14;55.14
74327;BME280;62745;51.060;13.786;2023-06-24T12:10:37;100969.00;;;23.05;55.52
74327;BME280;62745;51.060;13.786;2023-06-24T12:13:05;100965.94;;;23.93;54.64
74327;BME280;62745;51.060;13.786;2023-06-24T12:15:31;100954.38;;;24.96;52.53
74327;BME280;62745;51.060;13.786;2023-06-24T12:17:57;100966.91;;;24.76;50.29
74327;BME280;62745;51.060;13.786;2023-06-24T12:20:24;100966.94;;;24.24;51.70
74327;BME280;62745;51.060;13.786;2023-06-24T12:22:49;100968.47;;;24.05;53.24
74327;BME280;62745;51.060;13.786;2023-06-24T12:25:16;100965.94;;;23.29;53.12
74327;BME280;62745;51.060;13.786;2023-06-24T12:27:42;100968.22;;;24.06;53.54
74327;BME280;62745;51.060;13.786;2023-06-24T12:30:08;100954.78;;;24.47;52.69
74327;BME280;62745;51.060;13.786;2023-06-24T12:32:34;100955.88;;;24.51;51.52
74327;BME280;62745;51.060;13.786;2023-06-24T12:34:59;100958.97;;;24.85;52.00